Time;durP1;ratioP1;P1;durP2;ratioP2;P2;SDS_P1;SDS_P2;PMS_P1;PMS_P2;Temp;Humidity;BMP_temperature;BMP_pressure;BME280_temperature;BME280_humidity;BME280_pressure;Samples;Min_cycle;Max_cycle;Signal;HPM_P1;HPM_P2
2023/01/19 00:00:31;;;;;;;13.43;6.25;;;0.60;99.90;;;;;;5086433;28;20689;-53
2023/01/19 00:02:56;;;;;;;11.15;6.35;;;0.60;99.90;;;;;;5089231;28;20043;-52
2023/01/19 00:05:22;;;;;;;13.60;5.68;;;0.60;99.90;;;;;;5088372;28;20430;-54
2023/01/19 00:07:47;;;;;;;14.60;6.40;;;0.60;99.90;;;;;;5088564;28;20393;-54
2023/01/19 00:10:13;;;;;;;12.48;6.90;;;0.60;99.90;;;;;;5088490;28;20023;-52
2023/01/19 00:12:38;;;;;;;10.43;6.20;;;0.60;99.90;;;;;;5088464;28;20020;-53
2023/01/19 00:15:04;;;;;;;10.98;5.10;;;0.60;99.90;;;;;;5088023;28;20111;-53
2023/01/19 00:17:30;;;;;;;11.27;6.30;;;0.60;99.90;;;;;;5088968;28;20020;-52
2023/01/19 00:19:55;;;;;;;13.65;6.63;;;0.60;99.90;;;;;;5087837;28;20019;-54
2023/01/19 00:22:21;;;;;;;11.85;5.80;;;0.60;99.90;;;;;;5088111;28;20024;-52
2023/01/19 00:24:46;;;;;;;17.33;6.38;;;0.60;99.90;;;;;;5087908;28;20374;-54
2023/01/19 00:27:12;;;;;;;21.42;6.80;;;0.60;99.90;;;;;;5088102;28;20016;-55
2023/01/19 00:29:37;;;;;;;14.52;6.18;;;0.60;99.90;;;;;;5087605;28;20027;-53
2023/01/19 00:32:04;;;;;;;17.17;6.38;;;0.60;99.90;;;;;;5088475;28;20028;-53
2023/01/19 00:34:38;;;;;;;11.63;5.90;;;0.60;99.90;;;;;;5086638;28;20020;-52
2023/01/19 00:37:07;;;;;;;13.05;6.18;;;0.60;99.90;;;;;;5088254;28;20026;-49
2023/01/19 00:39:33;;;;;;;12.98;6.15;;;0.60;99.90;;;;;;5083621;28;20020;-53
2023/01/19 00:44:42;;;;;;;13.48;6.32;;;0.70;99.90;;;;;;5086880;28;20115;-40
2023/01/19 00:47:08;;;;;;;13.27;5.88;;;0.70;99.90;;;;;;5087974;28;20103;-40
2023/01/19 00:49:34;;;;;;;12.70;6.13;;;0.70;99.90;;;;;;5087826;28;20024;-40
2023/01/19 00:51:59;;;;;;;12.35;6.25;;;0.60;99.90;;;;;;5086711;28;20406;-40
2023/01/19 00:54:25;;;;;;;13.55;6.28;;;0.60;99.90;;;;;;5088191;28;20467;-40
2023/01/19 00:56:50;;;;;;;36.67;7.03;;;0.60;99.90;;;;;;5087968;28;20032;-40
2023/01/19 00:59:16;;;;;;;12.30;6.47;;;0.60;99.90;;;;;;5088699;28;20115;-40
2023/01/19 01:01:41;;;;;;;12.73;6.18;;;0.60;99.90;;;;;;5088355;28;20020;-40
2023/01/19 01:04:07;;;;;;;14.70;5.80;;;0.60;99.90;;;;;;5087936;28;20025;-40
2023/01/19 01:06:32;;;;;;;14.43;6.55;;;0.60;99.90;;;;;;5087147;28;20026;-40
2023/01/19 01:08:58;;;;;;;10.95;6.10;;;0.60;99.90;;;;;;5088041;28;20012;-40
2023/01/19 01:11:23;;;;;;;15.95;7.78;;;0.60;99.90;;;;;;5087938;28;20498;-40
2023/01/19 01:13:49;;;;;;;13.73;7.05;;;0.60;99.90;;;;;;5087865;28;20024;-40
2023/01/19 01:16:15;;;;;;;13.05;6.35;;;0.50;99.90;;;;;;5087502;28;20020;-40
2023/01/19 01:18:42;;;;;;;13.88;6.35;;;0.50;99.90;;;;;;5087613;28;20025;-39
2023/01/19 01:21:08;;;;;;;12.05;6.55;;;0.50;99.90;;;;;;5087437;28;20016;-40
2023/01/19 01:23:34;;;;;;;12.07;6.63;;;0.60;99.90;;;;;;5087752;28;20452;-41
2023/01/19 01:25:59;;;;;;;10.98;6.72;;;0.60;99.90;;;;;;5087570;28;20016;-41
2023/01/19 01:28:25;;;;;;;11.75;6.25;;;0.60;99.90;;;;;;5069852;28;20063;-41
2023/01/19 01:30:55;;;;;;;14.70;6.65;;;0.60;99.90;;;;;;5088119;28;20065;-41
2023/01/19 01:33:21;;;;;;;12.63;7.23;;;0.70;99.90;;;;;;5087997;28;20020;-40
2023/01/19 01:35:48;;;;;;;13.75;7.75;;;0.60;99.90;;;;;;5087542;28;20034;-39
2023/01/19 01:38:15;;;;;;;15.43;7.97;;;0.60;99.90;;;;;;5086958;28;20021;-39
2023/01/19 01:40:41;;;;;;;13.27;5.93;;;0.60;99.90;;;;;;5090297;28;20043;-40
2023/01/19 01:43:15;;;;;;;15.60;6.53;;;0.70;99.90;;;;;;5091495;28;20023;-40
2023/01/19 01:45:41;;;;;;;12.88;6.50;;;0.70;99.90;;;;;;5091589;28;20013;-41
2023/01/19 01:48:15;;;;;;;10.85;6.50;;;0.70;99.90;;;;;;5092078;28;20028;-41
2023/01/19 01:53:32;;;;;;;;;;;0.60;99.90;;;;;;5091904;28;20493;-41
2023/01/19 01:56:01;;;;;;;10.80;6.78;;;0.70;99.90;;;;;;5090721;28;19951;-41
2023/01/19 01:58:27;;;;;;;9.55;5.88;;;0.70;99.90;;;;;;5090637;28;20024;-40
2023/01/19 02:03:38;;;;;;;13.15;6.60;;;0.70;99.90;;;;;;5088996;28;20031;-40
2023/01/19 02:06:06;;;;;;;11.25;6.80;;;0.70;99.90;;;;;;5090330;28;20024;-41
2023/01/19 02:14:19;;;;;;;11.90;5.80;;;0.80;99.90;;;;;;5089461;28;20027;-40
2023/01/19 02:16:45;;;;;;;10.75;6.00;;;0.80;99.90;;;;;;5090805;28;20023;-40
2023/01/19 02:19:21;;;;;;;11.25;5.90;;;0.80;99.90;;;;;;5089836;28;20028;-40
2023/01/19 02:22:13;;;;;;;12.30;6.35;;;0.70;99.90;;;;;;5088682;28;20402;-40
2023/01/19 02:24:39;;;;;;;11.90;5.95;;;0.80;99.90;;;;;;5088446;28;20043;-40
2023/01/19 02:27:05;;;;;;;13.25;6.50;;;0.80;99.90;;;;;;5090500;28;20054;-41
2023/01/19 02:29:32;;;;;;;12.60;5.82;;;0.80;99.90;;;;;;5090564;28;20031;-41
2023/01/19 02:31:59;;;;;;;12.02;6.22;;;0.80;99.90;;;;;;5090354;28;20378;-41
2023/01/19 02:34:25;;;;;;;13.68;6.15;;;0.80;99.90;;;;;;5089982;28;20023;-40
2023/01/19 02:37:10;;;;;;;10.30;6.13;;;0.80;99.90;;;;;;5089579;28;20020;-40
2023/01/19 02:39:57;;;;;;;12.07;5.63;;;0.80;99.90;;;;;;5087993;28;20028;-40
2023/01/19 02:42:28;;;;;;;13.80;6.40;;;0.80;99.90;;;;;;5089256;28;20052;-40
2023/01/19 02:44:55;;;;;;;18.73;6.63;;;0.80;99.90;;;;;;5089782;28;20575;-38
2023/01/19 02:47:20;;;;;;;12.43;6.15;;;0.90;99.90;;;;;;5090293;28;20030;-40
2023/01/19 02:50:00;;;;;;;11.60;6.32;;;0.80;99.90;;;;;;5089702;28;20430;-38
2023/01/19 02:52:27;;;;;;;11.85;6.38;;;0.80;99.90;;;;;;5087591;28;20028;-39
2023/01/19 02:55:14;;;;;;;10.73;6.10;;;0.80;99.90;;;;;;5084997;28;20038;-39
2023/01/19 02:57:51;;;;;;;15.25;6.05;;;0.90;99.90;;;;;;5089147;28;20020;-41
2023/01/19 03:00:25;;;;;;;16.67;5.40;;;1.00;99.90;;;;;;5089510;28;20548;-41
2023/01/19 03:03:31;;;;;;;10.32;5.55;;;1.00;99.90;;;;;;5090138;28;20048;-41
2023/01/19 03:06:09;;;;;;;11.73;5.43;;;0.90;99.90;;;;;;5088484;28;20043;-40
2023/01/19 03:08:50;;;;;;;13.63;6.22;;;0.90;99.90;;;;;;5087609;28;20020;-40
2023/01/19 03:11:16;;;;;;;10.18;5.85;;;0.90;99.90;;;;;;5087615;28;20116;-41
2023/01/19 03:13:44;;;;;;;11.90;5.95;;;1.00;99.90;;;;;;5089613;28;20106;-41
2023/01/19 03:16:20;;;;;;;11.98;6.07;;;1.00;99.90;;;;;;5088991;28;20027;-41
2023/01/19 03:18:52;;;;;;;11.75;5.25;;;1.00;99.90;;;;;;5089498;28;20403;-41
2023/01/19 03:21:21;;;;;;;11.38;5.93;;;1.00;99.90;;;;;;5086957;28;20099;-41
2023/01/19 03:23:49;;;;;;;11.13;6.30;;;0.90;99.90;;;;;;5089700;28;20375;-39
2023/01/19 03:26:19;;;;;;;8.63;5.50;;;1.00;99.90;;;;;;5086235;28;20035;-40
2023/01/19 03:28:47;;;;;;;10.38;5.60;;;1.00;99.90;;;;;;5088969;28;20482;-40
2023/01/19 03:31:25;;;;;;;13.73;5.60;;;1.00;99.90;;;;;;5086821;28;20020;-40
2023/01/19 03:33:58;;;;;;;15.02;5.82;;;1.00;99.90;;;;;;5089059;28;20026;-39
2023/01/19 03:36:29;;;;;;;10.02;5.90;;;1.00;99.90;;;;;;5086860;28;20024;-39
2023/01/19 03:38:58;;;;;;;11.43;5.65;;;0.90;99.90;;;;;;5086908;28;20459;-51
2023/01/19 03:41:27;;;;;;;12.05;5.65;;;0.90;99.90;;;;;;5089081;28;20017;-52
2023/01/19 03:43:54;;;;;;;12.07;5.70;;;0.90;99.90;;;;;;5086214;28;20521;-51
2023/01/19 03:46:21;;;;;;;10.13;6.00;;;1.00;99.90;;;;;;5088582;28;20024;-52
2023/01/19 03:48:47;;;;;;;13.10;6.47;;;0.90;99.90;;;;;;5088635;28;20589;-54
2023/01/19 03:51:13;;;;;;;10.82;5.70;;;0.90;99.90;;;;;;5086145;28;20095;-52
2023/01/19 03:53:40;;;;;;;12.13;5.95;;;0.90;99.90;;;;;;5088962;28;20020;-51
2023/01/19 03:56:26;;;;;;;12.40;5.40;;;0.80;99.90;;;;;;5088162;28;20490;-51
2023/01/19 03:58:51;;;;;;;10.13;5.88;;;0.90;99.90;;;;;;5088581;28;20020;-50
2023/01/19 04:01:21;;;;;;;11.45;5.97;;;0.90;99.90;;;;;;5088932;28;20375;-52
2023/01/19 04:03:50;;;;;;;9.52;5.82;;;0.90;99.90;;;;;;5088765;28;20056;-50
2023/01/19 04:06:16;;;;;;;12.20;5.68;;;0.80;99.90;;;;;;5088295;28;20069;-50
2023/01/19 04:08:42;;;;;;;13.45;6.00;;;0.90;99.90;;;;;;5088461;28;20052;-52
2023/01/19 04:11:08;;;;;;;14.90;5.38;;;0.90;99.90;;;;;;5088705;28;20059;-53
2023/01/19 04:13:34;;;;;;;11.90;6.43;;;0.90;99.90;;;;;;5087224;28;20028;-52
2023/01/19 04:16:00;;;;;;;11.73;5.55;;;1.00;99.90;;;;;;5088145;28;20487;-51
2023/01/19 04:18:27;;;;;;;13.20;6.55;;;1.00;99.90;;;;;;5087045;28;20052;-51
2023/01/19 04:20:53;;;;;;;9.73;5.95;;;1.00;99.90;;;;;;5085161;28;20095;-51
2023/01/19 04:23:19;;;;;;;11.60;5.80;;;1.00;99.90;;;;;;5088215;28;20095;-50
2023/01/19 04:25:45;;;;;;;10.75;5.97;;;0.90;99.90;;;;;;5088218;28;20039;-51
2023/01/19 04:28:10;;;;;;;18.35;6.20;;;1.00;99.90;;;;;;5088254;28;20702;-52
2023/01/19 04:30:36;;;;;;;11.23;6.53;;;0.90;99.90;;;;;;5088303;28;20502;-50
2023/01/19 04:33:01;;;;;;;10.35;6.13;;;1.00;99.90;;;;;;5088227;28;20166;-51
2023/01/19 04:35:27;;;;;;;15.30;6.43;;;0.90;99.90;;;;;;5087606;28;20040;-50
2023/01/19 04:37:53;;;;;;;14.52;6.80;;;0.90;99.90;;;;;;5085152;28;20043;-52
2023/01/19 04:40:18;;;;;;;9.98;5.38;;;0.90;99.90;;;;;;5088474;28;20023;-52
2023/01/19 04:42:45;;;;;;;12.00;6.93;;;0.90;99.90;;;;;;5087958;28;20020;-41
2023/01/19 04:45:12;;;;;;;10.77;6.03;;;0.90;99.90;;;;;;5085961;28;20012;-40
2023/01/19 04:47:38;;;;;;;9.98;5.57;;;0.90;99.90;;;;;;5088220;28;20020;-40
2023/01/19 04:50:04;;;;;;;9.73;6.68;;;0.90;99.90;;;;;;5086768;28;20035;-41
2023/01/19 04:52:34;;;;;;;10.55;6.55;;;0.80;99.90;;;;;;5087178;28;20459;-53
2023/01/19 04:55:04;;;;;;;12.63;6.82;;;0.90;99.90;;;;;;5087187;28;20107;-54
2023/01/19 04:57:30;;;;;;;11.43;6.63;;;0.90;99.90;;;;;;5087291;28;20166;-40
2023/01/19 04:59:58;;;;;;;14.57;6.55;;;0.90;99.90;;;;;;5087748;28;20518;-40
2023/01/19 05:02:24;;;;;;;9.90;6.22;;;0.80;99.90;;;;;;5087827;28;20028;-53
2023/01/19 05:04:50;;;;;;;10.30;6.15;;;0.80;99.90;;;;;;5088555;28;20043;-40
2023/01/19 05:07:16;;;;;;;10.20;6.20;;;0.80;99.90;;;;;;5093793;28;20017;-53
2023/01/19 05:09:42;;;;;;;11.95;6.47;;;0.80;99.90;;;;;;5091585;28;20541;-40
2023/01/19 05:12:08;;;;;;;11.68;6.45;;;0.80;99.90;;;;;;5087148;28;20028;-52
2023/01/19 05:14:33;;;;;;;11.02;7.05;;;0.80;99.90;;;;;;5087434;28;20436;-52
2023/01/19 05:17:01;;;;;;;10.45;5.88;;;0.80;99.90;;;;;;5091424;28;20394;-39
2023/01/19 05:19:27;;;;;;;11.50;6.45;;;0.80;99.90;;;;;;5090891;28;20048;-39
2023/01/19 05:21:53;;;;;;;12.90;6.47;;;0.80;99.90;;;;;;5090216;28;20483;-40
2023/01/19 05:24:19;;;;;;;13.43;7.38;;;0.80;99.90;;;;;;5091977;28;20533;-40
2023/01/19 05:26:44;;;;;;;13.02;6.55;;;0.80;99.90;;;;;;5091396;28;20212;-41
2023/01/19 05:29:10;;;;;;;11.00;6.38;;;0.90;99.90;;;;;;5092004;28;20474;-39
2023/01/19 05:31:36;;;;;;;14.25;6.85;;;0.80;99.90;;;;;;5090219;28;20288;-51
2023/01/19 05:34:02;;;;;;;13.40;6.80;;;0.90;99.90;;;;;;5090825;28;20107;-41
2023/01/19 05:36:28;;;;;;;9.23;5.72;;;0.80;99.90;;;;;;5090386;28;20060;-51
2023/01/19 05:38:54;;;;;;;13.05;6.70;;;0.80;99.90;;;;;;5090663;28;20639;-53
2023/01/19 05:41:20;;;;;;;10.85;6.60;;;0.90;99.90;;;;;;5091045;28;20475;-53
2023/01/19 05:43:45;;;;;;;10.35;5.88;;;0.90;99.90;;;;;;5089868;28;20027;-52
2023/01/19 05:46:11;;;;;;;14.00;7.20;;;0.90;99.90;;;;;;5090657;28;20073;-52
2023/01/19 05:48:37;;;;;;;12.95;7.13;;;0.80;99.90;;;;;;5089940;28;20030;-53
2023/01/19 05:51:03;;;;;;;10.27;6.38;;;0.80;99.90;;;;;;5090073;28;20020;-53
2023/01/19 05:53:29;;;;;;;13.75;7.30;;;0.80;99.90;;;;;;5089656;28;20070;-51
2023/01/19 05:56:00;;;;;;;12.10;6.65;;;0.80;99.90;;;;;;5087524;28;20032;-51
2023/01/19 05:58:25;;;;;;;12.23;7.32;;;0.90;99.90;;;;;;5090813;28;20498;-51
2023/01/19 06:00:51;;;;;;;15.00;7.32;;;0.80;99.90;;;;;;5090667;28;20043;-52
2023/01/19 06:03:17;;;;;;;14.25;7.43;;;0.80;99.90;;;;;;5090615;28;20016;-52
2023/01/19 06:05:43;;;;;;;11.98;6.80;;;0.80;99.90;;;;;;5090277;28;20382;-51
2023/01/19 06:08:08;;;;;;;11.52;7.03;;;0.80;99.90;;;;;;5088075;28;20024;-53
2023/01/19 06:10:34;;;;;;;14.20;7.00;;;0.80;99.90;;;;;;5090869;28;20040;-52
2023/01/19 06:12:59;;;;;;;12.48;7.75;;;0.80;99.90;;;;;;5090871;28;20016;-53
2023/01/19 06:15:25;;;;;;;14.27;6.57;;;0.90;99.90;;;;;;5088205;28;20028;-52
2023/01/19 06:17:50;;;;;;;12.57;7.93;;;0.90;99.90;;;;;;5090782;28;20038;-49
2023/01/19 06:20:16;;;;;;;17.73;7.15;;;0.90;99.90;;;;;;5088010;28;20039;-52
2023/01/19 06:22:42;;;;;;;13.07;6.50;;;0.90;99.90;;;;;;5090315;28;20099;-51
2023/01/19 06:25:08;;;;;;;15.05;7.15;;;0.80;99.90;;;;;;5090136;28;20111;-52
2023/01/19 06:27:35;;;;;;;13.00;6.88;;;0.90;99.90;;;;;;5090405;28;20020;-51
2023/01/19 06:30:01;;;;;;;28.60;9.07;;;0.90;99.90;;;;;;5090571;28;20044;-50
2023/01/19 06:32:26;;;;;;;11.30;6.72;;;0.90;99.90;;;;;;5093279;28;20504;-52
2023/01/19 06:34:52;;;;;;;12.07;6.90;;;0.80;99.90;;;;;;5093585;28;20024;-53
2023/01/19 06:37:17;;;;;;;24.73;8.70;;;0.80;99.90;;;;;;5096766;28;20030;-50
2023/01/19 06:39:44;;;;;;;9.98;6.57;;;0.80;99.90;;;;;;5085707;28;20436;-52
2023/01/19 06:42:10;;;;;;;18.13;6.55;;;0.80;99.90;;;;;;5089731;28;20020;-51
2023/01/19 06:44:35;;;;;;;11.88;7.40;;;0.80;99.90;;;;;;5089023;28;20055;-52
2023/01/19 06:47:01;;;;;;;14.45;6.90;;;0.90;99.90;;;;;;5091436;28;20076;-51
2023/01/19 06:49:27;;;;;;;11.77;6.78;;;1.00;99.90;;;;;;5089710;28;20118;-53
2023/01/19 06:51:52;;;;;;;10.35;6.28;;;1.00;99.90;;;;;;5089134;28;20016;-54
2023/01/19 06:54:18;;;;;;;17.05;6.70;;;1.00;99.90;;;;;;5092330;28;20017;-53
2023/01/19 06:56:43;;;;;;;15.18;6.63;;;1.10;99.90;;;;;;5087913;28;20012;-51
2023/01/19 06:59:09;;;;;;;13.88;7.00;;;1.10;99.90;;;;;;5090258;28;20047;-51
2023/01/19 07:01:34;;;;;;;9.88;6.80;;;1.10;99.90;;;;;;5090198;28;20103;-52
2023/01/19 07:04:00;;;;;;;12.02;6.75;;;1.10;99.90;;;;;;5089785;28;20164;-53
2023/01/19 07:06:26;;;;;;;13.38;7.38;;;1.10;99.90;;;;;;5089376;28;20031;-49
2023/01/19 07:08:52;;;;;;;10.20;6.30;;;1.10;99.90;;;;;;5089844;28;20024;-51
2023/01/19 07:11:18;;;;;;;17.63;6.35;;;1.20;99.90;;;;;;5094922;28;20481;-50
2023/01/19 07:13:46;;;;;;;14.77;7.40;;;1.20;99.90;;;;;;5093850;28;20036;-49
2023/01/19 07:16:13;;;;;;;18.83;7.38;;;1.40;99.90;;;;;;5089002;28;20016;-51
2023/01/19 07:18:39;;;;;;;15.07;7.32;;;1.30;99.90;;;;;;5089665;28;20027;-49
2023/01/19 07:21:05;;;;;;;13.20;6.57;;;1.30;99.90;;;;;;5088332;28;20022;-50
2023/01/19 07:23:31;;;;;;;11.40;6.72;;;1.40;99.90;;;;;;5089430;28;20020;-52
2023/01/19 07:25:59;;;;;;;14.23;7.22;;;1.40;99.90;;;;;;5089637;28;20470;-50
2023/01/19 07:28:25;;;;;;;19.50;7.70;;;1.40;99.90;;;;;;5090198;28;20020;-50
2023/01/19 07:30:52;;;;;;;11.38;6.82;;;1.40;99.90;;;;;;5089773;28;20028;-51
2023/01/19 07:33:17;;;;;;;13.85;6.75;;;1.40;99.90;;;;;;5089725;28;20432;-50
2023/01/19 07:35:47;;;;;;;11.52;6.38;;;1.40;99.90;;;;;;5088940;28;20020;-51
2023/01/19 07:38:12;;;;;;;11.45;6.70;;;1.40;99.90;;;;;;5087669;28;20038;-49
2023/01/19 07:40:38;;;;;;;12.27;6.82;;;1.40;99.90;;;;;;5089463;28;20441;-52
2023/01/19 07:43:03;;;;;;;13.15;7.00;;;1.40;99.90;;;;;;5089456;28;20540;-51
2023/01/19 07:45:29;;;;;;;11.43;7.30;;;1.50;99.90;;;;;;5089084;28;20383;-52
2023/01/19 07:47:55;;;;;;;13.15;7.63;;;1.50;99.90;;;;;;5089224;28;20028;-52
2023/01/19 07:50:23;;;;;;;13.45;6.95;;;1.60;99.90;;;;;;5088946;28;20012;-50
2023/01/19 07:52:51;;;;;;;12.18;6.80;;;1.60;99.90;;;;;;5087637;28;20024;-51
2023/01/19 07:55:18;;;;;;;15.05;6.82;;;1.70;99.90;;;;;;5088638;28;20040;-50
2023/01/19 07:57:43;;;;;;;10.57;7.05;;;1.80;99.90;;;;;;5089207;28;20028;-50
2023/01/19 08:00:10;;;;;;;15.30;6.95;;;1.80;99.90;;;;;;5089136;28;20026;-52
2023/01/19 08:02:36;;;;;;;12.90;6.97;;;1.70;99.90;;;;;;5088774;28;20077;-49
2023/01/19 08:05:02;;;;;;;11.18;6.18;;;1.80;99.90;;;;;;5087924;28;20020;-50
2023/01/19 08:07:28;;;;;;;15.18;6.80;;;1.70;99.90;;;;;;5088857;28;20031;-51
2023/01/19 08:09:53;;;;;;;11.00;6.80;;;1.80;99.90;;;;;;5088660;28;20518;-52
2023/01/19 08:12:19;;;;;;;11.93;6.80;;;1.70;99.90;;;;;;5089199;28;20482;-53
2023/01/19 08:14:44;;;;;;;13.20;7.07;;;1.70;99.90;;;;;;5087142;28;20363;-53
2023/01/19 08:17:13;;;;;;;11.52;6.65;;;1.90;99.90;;;;;;5084712;28;20025;-50
2023/01/19 08:19:39;;;;;;;17.23;6.47;;;1.90;99.90;;;;;;5080316;28;20016;-51
2023/01/19 08:22:04;;;;;;;11.90;6.55;;;1.90;99.90;;;;;;5088560;28;20216;-51
2023/01/19 08:24:30;;;;;;;11.73;5.88;;;2.00;99.90;;;;;;5087398;28;20549;-52
2023/01/19 08:27:00;;;;;;;12.20;6.30;;;2.00;99.90;;;;;;5088679;28;20020;-51
2023/01/19 08:29:29;;;;;;;12.57;6.65;;;2.00;99.90;;;;;;5089149;28;20024;-50
2023/01/19 08:31:57;;;;;;;12.25;7.35;;;2.20;99.90;;;;;;5088663;28;20036;-52
2023/01/19 08:34:23;;;;;;;10.55;6.55;;;2.00;99.90;;;;;;5088591;28;20016;-52
2023/01/19 08:36:48;;;;;;;11.48;6.15;;;2.10;99.90;;;;;;5088069;28;20651;-51
2023/01/19 08:39:14;;;;;;;10.68;5.85;;;2.20;99.90;;;;;;5089061;28;20495;-51
2023/01/19 08:41:40;;;;;;;11.73;6.55;;;2.10;99.90;;;;;;5088743;28;20020;-53
2023/01/19 08:44:05;;;;;;;13.82;6.00;;;2.10;99.90;;;;;;5088591;28;20095;-49
2023/01/19 08:46:31;;;;;;;10.20;5.80;;;2.10;99.90;;;;;;5088177;28;20024;-54
2023/01/19 08:48:57;;;;;;;11.20;6.72;;;2.20;99.90;;;;;;5083924;28;20020;-52
2023/01/19 08:51:22;;;;;;;11.23;6.30;;;2.30;99.90;;;;;;5091916;28;20062;-50
2023/01/19 08:53:48;;;;;;;10.23;5.82;;;2.40;99.90;;;;;;5092838;28;20035;-52
2023/01/19 08:56:13;;;;;;;14.35;6.00;;;2.30;99.90;;;;;;5092286;28;20551;-51
2023/01/19 08:58:40;;;;;;;12.23;5.88;;;2.30;99.90;;;;;;5092797;28;20023;-52
2023/01/19 09:01:07;;;;;;;13.35;6.43;;;2.20;99.90;;;;;;5092467;28;20144;-51
2023/01/19 09:03:33;;;;;;;8.98;5.57;;;2.30;99.90;;;;;;5092625;28;20099;-50
2023/01/19 09:05:59;;;;;;;11.98;5.28;;;2.40;99.90;;;;;;5091973;28;20101;-50
2023/01/19 09:08:25;;;;;;;10.10;5.70;;;2.40;99.90;;;;;;5092549;28;20056;-51
2023/01/19 09:10:50;;;;;;;11.90;6.53;;;2.30;99.90;;;;;;5092426;28;20562;-52
2023/01/19 09:13:18;;;;;;;11.93;6.15;;;2.30;99.90;;;;;;5092601;28;20024;-53
2023/01/19 09:15:44;;;;;;;13.05;6.05;;;2.30;99.90;;;;;;5091863;28;20059;-53
2023/01/19 09:18:18;;;;;;;13.25;5.63;;;2.20;99.90;;;;;;5087632;28;20064;-51
2023/01/19 09:20:45;;;;;;;10.10;5.57;;;2.10;99.90;;;;;;5083653;28;20016;-52
2023/01/19 09:23:13;;;;;;;10.43;6.05;;;2.20;99.90;;;;;;5091265;28;20028;-52
2023/01/19 09:25:40;;;;;;;10.70;6.07;;;2.20;99.90;;;;;;5091386;28;20027;-51
2023/01/19 09:28:08;;;;;;;14.00;6.57;;;2.20;99.90;;;;;;5091758;28;20074;-51
2023/01/19 09:30:37;;;;;;;10.52;5.65;;;2.20;99.90;;;;;;5091487;28;20013;-52
2023/01/19 09:33:06;;;;;;;10.20;6.45;;;2.30;99.90;;;;;;5088921;28;20020;-50
2023/01/19 09:35:35;;;;;;;8.82;5.47;;;2.40;99.90;;;;;;5091295;28;20548;-52
2023/01/19 09:38:01;;;;;;;12.45;5.68;;;2.40;99.90;;;;;;5092113;28;20012;-52
2023/01/19 09:40:27;;;;;;;10.57;5.28;;;2.60;99.90;;;;;;5092275;28;20554;-48
2023/01/19 09:43:10;;;;;;;9.60;5.45;;;2.70;99.90;;;;;;5092122;28;20043;-51
2023/01/19 09:45:58;;;;;;;8.68;5.63;;;2.70;99.90;;;;;;5091714;28;20524;-52
2023/01/19 09:48:36;;;;;;;9.82;5.22;;;2.90;99.90;;;;;;5088425;28;20078;-52
2023/01/19 09:51:06;;;;;;;11.20;5.55;;;3.00;99.90;;;;;;5090261;28;20024;-52
2023/01/19 09:53:42;;;;;;;7.60;5.10;;;3.10;99.90;;;;;;5091533;28;20024;-49
2023/01/19 09:56:12;;;;;;;9.00;6.05;;;3.30;99.90;;;;;;5091014;28;20483;-51
2023/01/19 09:58:39;;;;;;;9.05;5.22;;;3.40;99.90;;;;;;5091799;28;20164;-50
2023/01/19 10:01:21;;;;;;;9.82;5.72;;;3.60;99.90;;;;;;5091109;28;20032;-50
2023/01/19 10:03:51;;;;;;;8.57;5.57;;;3.50;99.90;;;;;;5091488;28;20038;-49
2023/01/19 10:06:17;;;;;;;9.40;5.72;;;3.40;99.90;;;;;;5090588;28;20024;-50
2023/01/19 10:09:06;;;;;;;8.98;5.60;;;3.60;99.90;;;;;;5091545;28;20035;-51
2023/01/19 10:11:48;;;;;;;8.55;6.20;;;3.40;99.90;;;;;;5090875;28;20024;-50
2023/01/19 10:14:33;;;;;;;10.27;5.55;;;3.30;99.90;;;;;;5090577;28;20012;-49
2023/01/19 10:17:38;;;;;;;9.27;5.70;;;3.30;99.90;;;;;;5088109;28;20024;-52
2023/01/19 10:20:18;;;;;;;11.57;5.82;;;3.30;99.90;;;;;;5087537;28;20020;-52
2023/01/19 10:22:47;;;;;;;10.67;6.03;;;3.20;99.90;;;;;;5083726;28;20314;-51
2023/01/19 10:25:18;;;;;;;12.40;6.55;;;3.30;99.90;;;;;;5089630;28;20514;-50
2023/01/19 10:27:45;;;;;;;11.63;6.35;;;3.20;99.90;;;;;;5087311;28;20141;-51
2023/01/19 10:30:22;;;;;;;14.57;6.97;;;3.20;99.90;;;;;;5089118;28;20039;-50
2023/01/19 10:32:48;;;;;;;12.18;6.65;;;3.10;99.90;;;;;;5085914;28;20024;-51
2023/01/19 10:35:20;;;;;;;16.27;7.63;;;3.00;99.90;;;;;;5087876;28;20073;-49
2023/01/19 10:37:46;;;;;;;11.60;7.20;;;3.00;99.90;;;;;;5083925;28;20044;-52
2023/01/19 10:40:11;;;;;;;12.80;7.38;;;3.00;99.90;;;;;;5088160;28;20067;-50
2023/01/19 10:42:39;;;;;;;9.35;6.53;;;3.10;99.90;;;;;;5088696;28;20632;-51
2023/01/19 10:45:20;;;;;;;13.07;7.25;;;3.10;99.90;;;;;;5088406;28;20027;-51
2023/01/19 10:47:47;;;;;;;18.75;7.40;;;3.10;99.90;;;;;;5082988;28;20020;-52
2023/01/19 10:50:31;;;;;;;13.73;7.32;;;3.20;99.90;;;;;;5088595;28;20387;-51
2023/01/19 10:52:59;;;;;;;11.10;7.13;;;3.20;99.90;;;;;;5087725;28;20031;-50
2023/01/19 10:55:30;;;;;;;12.40;7.18;;;3.20;99.90;;;;;;5087602;28;20115;-52
2023/01/19 10:57:58;;;;;;;13.90;7.40;;;3.20;99.90;;;;;;5087683;28;20115;-51
2023/01/19 11:00:40;;;;;;;12.63;6.68;;;3.20;99.90;;;;;;5085625;28;20027;-52
2023/01/19 11:03:29;;;;;;;11.68;6.38;;;3.30;99.90;;;;;;5082057;28;20029;-49
2023/01/19 11:06:26;;;;;;;10.82;6.78;;;3.20;99.90;;;;;;5086026;28;20114;-50
2023/01/19 11:08:54;;;;;;;13.38;6.90;;;3.20;99.90;;;;;;5087743;28;20562;-49
2023/01/19 11:11:22;;;;;;;13.45;7.22;;;3.20;99.90;;;;;;5088117;28;20078;-51
2023/01/19 11:14:05;;;;;;;13.65;6.93;;;3.20;99.90;;;;;;5084555;28;20081;-38
2023/01/19 11:16:33;;;;;;;11.90;6.88;;;3.20;99.90;;;;;;5084313;28;20081;-39
2023/01/19 11:19:00;;;;;;;11.10;6.75;;;3.20;99.90;;;;;;5071613;28;20029;-39
2023/01/19 11:21:29;;;;;;;12.65;7.38;;;3.20;99.90;;;;;;5078085;28;20518;-39
2023/01/19 11:23:58;;;;;;;11.18;6.47;;;3.20;99.90;;;;;;5079140;28;20024;-39
2023/01/19 11:26:30;;;;;;;12.98;7.03;;;3.20;99.90;;;;;;5077354;28;20034;-39
2023/01/19 11:28:56;;;;;;;10.70;6.50;;;3.20;99.90;;;;;;5085933;28;20047;-39
2023/01/19 11:31:28;;;;;;;12.13;6.82;;;3.10;99.90;;;;;;5089535;28;20086;-39
2023/01/19 11:33:56;;;;;;;11.85;6.57;;;3.20;99.90;;;;;;5089143;28;20055;-38
2023/01/19 11:36:34;;;;;;;14.88;7.43;;;3.20;99.90;;;;;;5086839;28;20082;-39
2023/01/19 11:39:27;;;;;;;10.95;6.43;;;3.20;99.90;;;;;;5065856;28;20024;-39
2023/01/19 11:42:01;;;;;;;10.73;6.93;;;3.20;99.90;;;;;;5059090;28;21214;-39
2023/01/19 11:44:32;;;;;;;10.95;7.18;;;3.10;99.90;;;;;;5077731;28;20362;-39
2023/01/19 11:46:58;;;;;;;;;;;3.20;99.90;;;;;;5079266;28;20391;-39
2023/01/19 11:49:31;;;;;;;15.35;7.15;;;3.20;99.90;;;;;;5086004;28;20011;-39
2023/01/19 11:52:24;;;;;;;8.73;6.05;;;3.20;99.90;;;;;;5084622;28;20024;-39
2023/01/19 11:55:09;;;;;;;11.75;6.88;;;3.30;99.90;;;;;;5084314;28;20077;-39
2023/01/19 11:57:44;;;;;;;11.80;6.95;;;3.30;99.90;;;;;;5086312;28;20093;-39
2023/01/19 12:00:56;;;;;;;11.25;6.38;;;3.30;99.90;;;;;;5085234;28;20028;-40
2023/01/19 12:03:34;;;;;;;11.85;7.32;;;3.40;99.90;;;;;;5085280;28;20521;-40
2023/01/19 12:06:05;;;;;;;11.98;6.75;;;3.50;99.90;;;;;;5085801;28;20516;-41
2023/01/19 12:08:38;;;;;;;14.40;6.50;;;3.50;99.90;;;;;;5086676;28;20030;-40
2023/01/19 12:11:09;;;;;;;10.20;6.22;;;3.50;99.90;;;;;;5088593;28;20074;-40
2023/01/19 12:13:36;;;;;;;8.15;6.20;;;3.70;99.90;;;;;;5086705;28;20028;-40
2023/01/19 12:16:21;;;;;;;10.55;6.40;;;3.70;99.90;;;;;;5087711;28;20060;-40
2023/01/19 12:19:08;;;;;;;7.95;6.03;;;3.50;99.90;;;;;;5085000;28;20137;-40
2023/01/19 12:21:34;;;;;;;10.50;5.82;;;3.50;99.90;;;;;;5087984;28;20432;-39
2023/01/19 12:24:21;;;;;;;10.57;6.55;;;3.50;99.90;;;;;;5088168;28;20032;-40
2023/01/19 12:26:56;;;;;;;10.15;6.38;;;3.50;99.90;;;;;;5088123;28;20028;-39
2023/01/19 12:29:26;;;;;;;12.18;6.50;;;3.40;99.90;;;;;;5088013;28;20028;-40
2023/01/19 12:32:15;;;;;;;10.68;5.88;;;3.40;99.90;;;;;;5087925;28;20032;-39
2023/01/19 12:34:43;;;;;;;8.55;6.45;;;3.30;99.90;;;;;;5087423;28;20046;-39
2023/01/19 12:37:32;;;;;;;10.15;6.05;;;3.20;99.90;;;;;;5086467;28;20020;-39
2023/01/19 12:40:26;;;;;;;11.60;6.88;;;3.30;99.90;;;;;;5086338;28;20494;-39
2023/01/19 12:43:02;;;;;;;9.57;6.78;;;3.30;99.90;;;;;;5087240;28;20032;-39
2023/01/19 12:45:33;;;;;;;13.55;7.53;;;3.30;99.90;;;;;;5087422;28;20016;-39
2023/01/19 12:48:00;;;;;;;10.40;5.93;;;3.20;99.90;;;;;;5087959;28;20394;-39
2023/01/19 12:50:30;;;;;;;11.82;6.35;;;3.20;99.90;;;;;;5085847;28;20031;-39
2023/01/19 12:53:01;;;;;;;12.00;7.00;;;3.20;99.90;;;;;;5087112;28;20035;-39
2023/01/19 12:55:58;;;;;;;10.13;6.55;;;3.20;99.90;;;;;;5086670;28;20099;-39
2023/01/19 12:58:24;;;;;;;8.73;6.20;;;3.20;99.90;;;;;;5086449;28;20024;-39
2023/01/19 13:01:12;;;;;;;11.13;6.13;;;3.20;99.90;;;;;;5086221;28;20032;-39
2023/01/19 13:04:02;;;;;;;10.18;6.05;;;3.30;99.90;;;;;;5086167;28;20030;-39
2023/01/19 13:06:46;;;;;;;9.10;5.82;;;3.20;99.90;;;;;;5086967;28;20012;-40
2023/01/19 13:09:27;;;;;;;11.13;6.93;;;3.20;99.90;;;;;;5087964;28;20024;-40
2023/01/19 13:12:24;;;;;;;9.52;6.40;;;3.20;99.90;;;;;;5086055;28;20036;-38
2023/01/19 13:15:10;;;;;;;10.43;6.35;;;3.20;99.90;;;;;;5086013;28;20502;-39